This is the latest recevied weather packets stored in our database for station/object KG4QXL-2. If no packets are shown the sender has not sent any weather packets the latest 10 day(s).
| Time | Temp. | Humidity | Pressure | Rain* | Wind** | Luminosity | Snow |
|---|---|---|---|---|---|---|---|
| 1777426521 | 14.44° C | 89% | 1011.5 hPa | 0 mm | - | 0 W/m² | - |
| 1777420520 | 16.11° C | 82% | 1010.8 hPa | 0 mm | - | 0 W/m² | - |
| 1777419320 | 16.67° C | 82% | 1011.3 hPa | 0 mm | - | 0 W/m² | - |
| 1777417520 | 16.67° C | 79% | 1011.4 hPa | 0 mm | - | 0 W/m² | - |
| 1777416920 | 16.67° C | 78% | 1011.4 hPa | 0 mm | - | 1 W/m² | - |
| 1777414520 | 16.67° C | 77% | 1011.3 hPa | 0 mm | - | 4 W/m² | - |
| 1777410920 | 17.22° C | 74% | 1011.5 hPa | 0 mm | - | 4 W/m² | - |
| 1777410320 | 17.22° C | 74% | 1011.5 hPa | 0 mm | - | 6 W/m² | - |
| 1777408521 | 16.67° C | 74% | 1011.5 hPa | 0 mm | - | 5 W/m² | - |
| 1777407921 | 16.67° C | 73% | 1011.8 hPa | 0 mm | - | 7 W/m² | - |
| 1777401321 | 16.11° C | 71% | 1012.5 hPa | 0 mm | - | 28 W/m² | - |
| 1777388120 | 10.56° C | 90% | 1015.8 hPa | 0 mm | - | 6 W/m² | - |
| 1777386920 | 10.56° C | 92% | 1015.5 hPa | 0 mm | - | 11 W/m² | - |
| 1777385720 | 10.56° C | 93% | 1015.6 hPa | 0 mm | - | 7 W/m² | - |
| 1777384520 | 10.56° C | 90% | 1015.9 hPa | 0 mm | - | 5 W/m² | - |
| 1777382720 | 11.67° C | 75% | 1016.1 hPa | 0 mm | - | 6 W/m² | - |
| 1777381540 | 11.67° C | 75% | 1015.4 hPa | 0 mm | - | 4 W/m² | - |
| 1777379721 | 11.11° C | 76% | 1015.8 hPa | 0 mm | - | 12 W/m² | - |
| 1777376160 | 10° C | 82% | 1016.3 hPa | 0 mm | - | 1 W/m² | - |
| 1777374320 | 9.44° C | 86% | 1015.8 hPa | 0 mm | - | 0 W/m² | - |
| 1777370721 | 10° C | 83% | 1016 hPa | 0 mm | - | 0 W/m² | - |
| 1777369520 | 10.56° C | 81% | 1016.2 hPa | 0 mm | - | 0 W/m² | - |
| 1777367720 | 10° C | 83% | 1016.2 hPa | 0 mm | - | 0 W/m² | - |
| 1777362920 | 9.44° C | 87% | 1016.9 hPa | 0 mm | - | 0 W/m² | - |
| 1777361740 | 10° C | 85% | 1017.1 hPa | 0 mm | - | 0 W/m² | - |
* Rain latest hour (hover to see other rain measurements)
** Current wind speed in m/s (hover to see current wind gust speed)